sensor_id;sensor_type;location;lat;lon;timestamp;temperature;humidity
42227;DHT22;27892;52.378;13.122;2023-07-20T00:01:13;21.20;74.20
42227;DHT22;27892;52.378;13.122;2023-07-20T00:03:39;21.10;73.80
42227;DHT22;27892;52.378;13.122;2023-07-20T00:06:04;21.10;74.10
42227;DHT22;27892;52.378;13.122;2023-07-20T00:08:30;21.00;74.30
42227;DHT22;27892;52.378;13.122;2023-07-20T00:10:56;21.00;74.30
42227;DHT22;27892;52.378;13.122;2023-07-20T00:13:22;21.00;74.70
42227;DHT22;27892;52.378;13.122;2023-07-20T00:15:48;21.00;74.70
42227;DHT22;27892;52.378;13.122;2023-07-20T00:18:13;21.00;74.30
42227;DHT22;27892;52.378;13.122;2023-07-20T00:20:39;21.00;74.60
42227;DHT22;27892;52.378;13.122;2023-07-20T00:23:05;21.00;74.60
42227;DHT22;27892;52.378;13.122;2023-07-20T00:25:32;21.00;74.80
42227;DHT22;27892;52.378;13.122;2023-07-20T00:27:58;21.00;74.70
42227;DHT22;27892;52.378;13.122;2023-07-20T00:30:24;20.90;74.70
42227;DHT22;27892;52.378;13.122;2023-07-20T00:32:50;20.90;74.70
42227;DHT22;27892;52.378;13.122;2023-07-20T00:35:15;21.00;74.70
42227;DHT22;27892;52.378;13.122;2023-07-20T00:37:41;20.90;74.30
42227;DHT22;27892;52.378;13.122;2023-07-20T00:40:07;20.90;74.10
42227;DHT22;27892;52.378;13.122;2023-07-20T00:42:33;20.90;74.20
42227;DHT22;27892;52.378;13.122;2023-07-20T00:44:59;20.90;74.60
42227;DHT22;27892;52.378;13.122;2023-07-20T00:47:26;20.80;74.50
42227;DHT22;27892;52.378;13.122;2023-07-20T00:49:53;20.80;74.80
42227;DHT22;27892;52.378;13.122;2023-07-20T00:52:21;20.80;74.80
42227;DHT22;27892;52.378;13.122;2023-07-20T00:54:47;20.80;74.60
42227;DHT22;27892;52.378;13.122;2023-07-20T00:57:15;20.80;74.70
42227;DHT22;27892;52.378;13.122;2023-07-20T00:59:41;20.80;74.70
42227;DHT22;27892;52.378;13.122;2023-07-20T01:02:07;20.70;74.80
42227;DHT22;27892;52.378;13.122;2023-07-20T01:04:33;20.70;74.80
42227;DHT22;27892;52.378;13.122;2023-07-20T01:07:25;20.70;74.80
42227;DHT22;27892;52.378;13.122;2023-07-20T01:12:51;20.70;75.50
42227;DHT22;27892;52.378;13.122;2023-07-20T01:15:17;20.60;74.90
42227;DHT22;27892;52.378;13.122;2023-07-20T01:17:42;20.60;75.00
42227;DHT22;27892;52.378;13.122;2023-07-20T01:20:12;20.60;75.10
42227;DHT22;27892;52.378;13.122;2023-07-20T01:22:54;20.60;75.30
42227;DHT22;27892;52.378;13.122;2023-07-20T01:25:34;20.60;75.40
42227;DHT22;27892;52.378;13.122;2023-07-20T01:33:15;20.60;75.60
42227;DHT22;27892;52.378;13.122;2023-07-20T01:35:43;20.60;75.10
42227;DHT22;27892;52.378;13.122;2023-07-20T01:38:11;20.60;75.10
42227;DHT22;27892;52.378;13.122;2023-07-20T01:40:38;20.60;75.10
42227;DHT22;27892;52.378;13.122;2023-07-20T01:43:04;20.50;75.10
42227;DHT22;27892;52.378;13.122;2023-07-20T01:45:30;20.50;75.20
42227;DHT22;27892;52.378;13.122;2023-07-20T01:47:56;20.50;75.50
42227;DHT22;27892;52.378;13.122;2023-07-20T01:50:22;20.60;75.50
42227;DHT22;27892;52.378;13.122;2023-07-20T01:52:47;20.60;75.40
42227;DHT22;27892;52.378;13.122;2023-07-20T01:55:13;20.50;75.50
42227;DHT22;27892;52.378;13.122;2023-07-20T01:57:39;20.50;75.40
42227;DHT22;27892;52.378;13.122;2023-07-20T02:00:05;20.50;75.30
42227;DHT22;27892;52.378;13.122;2023-07-20T02:02:32;20.40;74.80
42227;DHT22;27892;52.378;13.122;2023-07-20T02:04:58;20.40;74.50
42227;DHT22;27892;52.378;13.122;2023-07-20T02:07:23;20.30;74.60
42227;DHT22;27892;52.378;13.122;2023-07-20T02:09:49;20.30;74.70
42227;DHT22;27892;52.378;13.122;2023-07-20T02:12:15;20.20;74.90
42227;DHT22;27892;52.378;13.122;2023-07-20T02:14:41;20.20;74.90
42227;DHT22;27892;52.378;13.122;2023-07-20T02:17:07;20.20;75.50
42227;DHT22;27892;52.378;13.122;2023-07-20T02:19:36;20.20;75.80
42227;DHT22;27892;52.378;13.122;2023-07-20T02:22:02;20.20;76.10
42227;DHT22;27892;52.378;13.122;2023-07-20T02:24:28;20.20;76.50
42227;DHT22;27892;52.378;13.122;2023-07-20T02:26:54;20.20;76.40
42227;DHT22;27892;52.378;13.122;2023-07-20T02:29:19;20.20;76.70
42227;DHT22;27892;52.378;13.122;2023-07-20T02:31:45;20.20;76.90
42227;DHT22;27892;52.378;13.122;2023-07-20T02:34:11;20.20;77.00
42227;DHT22;27892;52.378;13.122;2023-07-20T02:36:36;20.20;77.40
42227;DHT22;27892;52.378;13.122;2023-07-20T02:39:02;20.30;77.40
42227;DHT22;27892;52.378;13.122;2023-07-20T02:41:30;20.30;77.40
42227;DHT22;27892;52.378;13.122;2023-07-20T02:43:56;20.30;78.10
42227;DHT22;27892;52.378;13.122;2023-07-20T02:46:22;20.20;77.60
42227;DHT22;27892;52.378;13.122;2023-07-20T02:48:47;20.30;77.90
42227;DHT22;27892;52.378;13.122;2023-07-20T02:51:13;20.30;77.80
42227;DHT22;27892;52.378;13.122;2023-07-20T02:53:39;20.30;77.70
42227;DHT22;27892;52.378;13.122;2023-07-20T02:56:04;20.30;77.60
42227;DHT22;27892;52.378;13.122;2023-07-20T02:58:30;20.40;78.00
42227;DHT22;27892;52.378;13.122;2023-07-20T03:00:56;20.40;78.00
42227;DHT22;27892;52.378;13.122;2023-07-20T03:03:22;20.40;77.50
42227;DHT22;27892;52.378;13.122;2023-07-20T03:05:47;20.50;77.50
42227;DHT22;27892;52.378;13.122;2023-07-20T03:08:20;20.50;77.40
42227;DHT22;27892;52.378;13.122;2023-07-20T03:10:45;20.50;77.40
42227;DHT22;27892;52.378;13.122;2023-07-20T03:13:11;20.50;77.60
42227;DHT22;27892;52.378;13.122;2023-07-20T03:15:38;20.50;78.20
42227;DHT22;27892;52.378;13.122;2023-07-20T03:18:03;20.60;77.20
42227;DHT22;27892;52.378;13.122;2023-07-20T03:20:30;20.60;77.20
42227;DHT22;27892;52.378;13.122;2023-07-20T03:22:56;20.60;77.10
42227;DHT22;27892;52.378;13.122;2023-07-20T03:25:22;20.60;76.90
42227;DHT22;27892;52.378;13.122;2023-07-20T03:27:48;20.60;76.50
42227;DHT22;27892;52.378;13.122;2023-07-20T03:30:14;20.60;76.30
42227;DHT22;27892;52.378;13.122;2023-07-20T03:32:39;20.60;76.60
42227;DHT22;27892;52.378;13.122;2023-07-20T03:35:06;20.60;76.50
42227;DHT22;27892;52.378;13.122;2023-07-20T03:37:31;20.70;75.90
42227;DHT22;27892;52.378;13.122;2023-07-20T03:39:57;20.70;75.40
42227;DHT22;27892;52.378;13.122;2023-07-20T03:42:23;20.70;75.80
42227;DHT22;27892;52.378;13.122;2023-07-20T03:44:49;20.70;76.20
42227;DHT22;27892;52.378;13.122;2023-07-20T03:47:16;20.70;76.10
42227;DHT22;27892;52.378;13.122;2023-07-20T03:49:41;20.70;76.20
42227;DHT22;27892;52.378;13.122;2023-07-20T03:52:07;20.70;76.20
42227;DHT22;27892;52.378;13.122;2023-07-20T03:54:33;20.70;76.20
42227;DHT22;27892;52.378;13.122;2023-07-20T03:56:58;20.70;75.90
42227;DHT22;27892;52.378;13.122;2023-07-20T03:59:24;20.70;75.40
42227;DHT22;27892;52.378;13.122;2023-07-20T04:01:50;20.70;75.50
42227;DHT22;27892;52.378;13.122;2023-07-20T04:04:16;20.60;74.90
42227;DHT22;27892;52.378;13.122;2023-07-20T04:06:41;20.60;75.80
42227;DHT22;27892;52.378;13.122;2023-07-20T04:09:10;20.60;76.00
42227;DHT22;27892;52.378;13.122;2023-07-20T04:11:39;20.70;75.70
42227;DHT22;27892;52.378;13.122;2023-07-20T04:14:05;20.70;75.60
42227;DHT22;27892;52.378;13.122;2023-07-20T04:16:31;20.70;75.80
42227;DHT22;27892;52.378;13.122;2023-07-20T04:18:58;20.70;76.30
42227;DHT22;27892;52.378;13.122;2023-07-20T04:21:25;20.70;76.30
42227;DHT22;27892;52.378;13.122;2023-07-20T04:23:51;20.70;76.30
42227;DHT22;27892;52.378;13.122;2023-07-20T04:26:16;20.70;76.30
42227;DHT22;27892;52.378;13.122;2023-07-20T04:28:42;20.70;76.20
42227;DHT22;27892;52.378;13.122;2023-07-20T04:31:12;20.80;76.20
42227;DHT22;27892;52.378;13.122;2023-07-20T04:33:39;20.80;76.20
42227;DHT22;27892;52.378;13.122;2023-07-20T04:36:05;20.80;76.20
42227;DHT22;27892;52.378;13.122;2023-07-20T04:38:31;20.80;75.70
42227;DHT22;27892;52.378;13.122;2023-07-20T04:40:56;20.90;75.50
42227;DHT22;27892;52.378;13.122;2023-07-20T04:43:22;20.90;75.30
42227;DHT22;27892;52.378;13.122;2023-07-20T04:45:48;20.90;75.20
42227;DHT22;27892;52.378;13.122;2023-07-20T04:48:15;20.90;75.50
42227;DHT22;27892;52.378;13.122;2023-07-20T04:50:42;20.90;75.60
42227;DHT22;27892;52.378;13.122;2023-07-20T04:53:09;21.00;75.70
42227;DHT22;27892;52.378;13.122;2023-07-20T04:55:38;21.00;75.40
42227;DHT22;27892;52.378;13.122;2023-07-20T04:58:05;21.10;75.60
42227;DHT22;27892;52.378;13.122;2023-07-20T05:00:33;21.20;75.10
42227;DHT22;27892;52.378;13.122;2023-07-20T05:02:58;21.20;74.30
42227;DHT22;27892;52.378;13.122;2023-07-20T05:05:24;21.20;74.20
42227;DHT22;27892;52.378;13.122;2023-07-20T05:07:50;21.20;74.40
42227;DHT22;27892;52.378;13.122;2023-07-20T05:10:16;21.30;73.90
42227;DHT22;27892;52.378;13.122;2023-07-20T05:12:42;21.30;73.70
42227;DHT22;27892;52.378;13.122;2023-07-20T05:15:08;21.40;73.60
42227;DHT22;27892;52.378;13.122;2023-07-20T05:17:33;21.40;73.40
42227;DHT22;27892;52.378;13.122;2023-07-20T05:19:59;21.40;72.80
42227;DHT22;27892;52.378;13.122;2023-07-20T05:22:25;21.40;72.60
42227;DHT22;27892;52.378;13.122;2023-07-20T05:24:50;21.40;72.40
42227;DHT22;27892;52.378;13.122;2023-07-20T05:27:16;21.40;73.00
42227;DHT22;27892;52.378;13.122;2023-07-20T05:29:46;21.40;73.30
42227;DHT22;27892;52.378;13.122;2023-07-20T05:32:14;21.40;72.90
42227;DHT22;27892;52.378;13.122;2023-07-20T05:34:40;21.40;72.30
42227;DHT22;27892;52.378;13.122;2023-07-20T05:37:06;21.50;73.10
42227;DHT22;27892;52.378;13.122;2023-07-20T05:39:35;21.60;73.10
42227;DHT22;27892;52.378;13.122;2023-07-20T05:42:00;21.70;72.90
42227;DHT22;27892;52.378;13.122;2023-07-20T05:44:26;22.00;71.90
42227;DHT22;27892;52.378;13.122;2023-07-20T05:46:52;22.00;70.60
42227;DHT22;27892;52.378;13.122;2023-07-20T05:49:17;21.90;70.30
42227;DHT22;27892;52.378;13.122;2023-07-20T05:51:43;21.80;70.60
42227;DHT22;27892;52.378;13.122;2023-07-20T05:54:08;21.80;70.50
42227;DHT22;27892;52.378;13.122;2023-07-20T05:56:34;21.80;70.50
42227;DHT22;27892;52.378;13.122;2023-07-20T05:59:00;21.70;70.80
42227;DHT22;27892;52.378;13.122;2023-07-20T06:01:25;21.70;71.10
42227;DHT22;27892;52.378;13.122;2023-07-20T06:03:53;21.60;70.30
42227;DHT22;27892;52.378;13.122;2023-07-20T06:06:19;21.60;70.30
42227;DHT22;27892;52.378;13.122;2023-07-20T06:08:45;21.70;70.60
42227;DHT22;27892;52.378;13.122;2023-07-20T06:11:11;21.90;70.40
42227;DHT22;27892;52.378;13.122;2023-07-20T06:13:36;22.20;70.20
42227;DHT22;27892;52.378;13.122;2023-07-20T06:16:03;22.50;69.10
42227;DHT22;27892;52.378;13.122;2023-07-20T06:18:29;23.00;68.50
42227;DHT22;27892;52.378;13.122;2023-07-20T06:20:56;23.70;65.10
42227;DHT22;27892;52.378;13.122;2023-07-20T06:23:22;24.00;63.30
42227;DHT22;27892;52.378;13.122;2023-07-20T06:25:48;24.30;62.50
42227;DHT22;27892;52.378;13.122;2023-07-20T06:28:14;25.20;60.40
42227;DHT22;27892;52.378;13.122;2023-07-20T06:30:40;26.50;58.90
42227;DHT22;27892;52.378;13.122;2023-07-20T06:33:05;27.80;54.60
42227;DHT22;27892;52.378;13.122;2023-07-20T06:35:34;27.30;52.50
42227;DHT22;27892;52.378;13.122;2023-07-20T06:38:00;26.90;53.00
42227;DHT22;27892;52.378;13.122;2023-07-20T06:40:26;26.40;53.00
42227;DHT22;27892;52.378;13.122;2023-07-20T06:42:52;26.50;53.40
42227;DHT22;27892;52.378;13.122;2023-07-20T06:45:18;26.70;51.90
42227;DHT22;27892;52.378;13.122;2023-07-20T06:47:43;26.60;50.90
42227;DHT22;27892;52.378;13.122;2023-07-20T06:50:10;25.80;52.50
42227;DHT22;27892;52.378;13.122;2023-07-20T06:52:36;25.30;53.50
42227;DHT22;27892;52.378;13.122;2023-07-20T06:55:01;25.20;54.30
42227;DHT22;27892;52.378;13.122;2023-07-20T06:57:27;27.50;55.10
42227;DHT22;27892;52.378;13.122;2023-07-20T06:59:53;30.30;48.60
42227;DHT22;27892;52.378;13.122;2023-07-20T07:02:19;32.30;43.70
42227;DHT22;27892;52.378;13.122;2023-07-20T07:04:45;33.90;40.50
42227;DHT22;27892;52.378;13.122;2023-07-20T07:07:14;34.20;37.80
42227;DHT22;27892;52.378;13.122;2023-07-20T07:09:40;33.90;37.10
42227;DHT22;27892;52.378;13.122;2023-07-20T07:12:06;32.60;37.00
42227;DHT22;27892;52.378;13.122;2023-07-20T07:14:32;31.10;39.20
42227;DHT22;27892;52.378;13.122;2023-07-20T07:16:57;30.00;40.60
42227;DHT22;27892;52.378;13.122;2023-07-20T07:19:23;29.30;42.90
42227;DHT22;27892;52.378;13.122;2023-07-20T07:21:48;29.10;43.50
42227;DHT22;27892;52.378;13.122;2023-07-20T07:24:14;28.80;43.40
42227;DHT22;27892;52.378;13.122;2023-07-20T07:26:40;28.10;43.70
42227;DHT22;27892;52.378;13.122;2023-07-20T07:29:05;27.40;44.60
42227;DHT22;27892;52.378;13.122;2023-07-20T07:31:34;26.60;46.20
42227;DHT22;27892;52.378;13.122;2023-07-20T07:34:01;25.90;47.80
42227;DHT22;27892;52.378;13.122;2023-07-20T07:36:27;25.60;49.30
42227;DHT22;27892;52.378;13.122;2023-07-20T07:38:53;25.50;50.00
42227;DHT22;27892;52.378;13.122;2023-07-20T07:41:19;25.60;49.50
42227;DHT22;27892;52.378;13.122;2023-07-20T07:43:46;25.80;49.30
42227;DHT22;27892;52.378;13.122;2023-07-20T07:46:11;26.10;48.90
42227;DHT22;27892;52.378;13.122;2023-07-20T07:48:37;26.20;48.60
42227;DHT22;27892;52.378;13.122;2023-07-20T07:51:03;26.30;48.50
42227;DHT22;27892;52.378;13.122;2023-07-20T07:53:29;26.10;48.40
42227;DHT22;27892;52.378;13.122;2023-07-20T07:55:54;25.90;49.50
42227;DHT22;27892;52.378;13.122;2023-07-20T07:58:20;25.60;49.40
42227;DHT22;27892;52.378;13.122;2023-07-20T08:00:46;25.50;49.80
42227;DHT22;27892;52.378;13.122;2023-07-20T08:03:13;25.30;50.00
42227;DHT22;27892;52.378;13.122;2023-07-20T08:05:38;25.10;50.30
42227;DHT22;27892;52.378;13.122;2023-07-20T08:08:04;24.90;51.40
42227;DHT22;27892;52.378;13.122;2023-07-20T08:10:31;24.70;50.80
42227;DHT22;27892;52.378;13.122;2023-07-20T08:12:56;25.50;52.30
42227;DHT22;27892;52.378;13.122;2023-07-20T08:15:22;27.70;48.80
42227;DHT22;27892;52.378;13.122;2023-07-20T08:17:48;28.80;44.80
42227;DHT22;27892;52.378;13.122;2023-07-20T08:20:15;28.10;43.10
42227;DHT22;27892;52.378;13.122;2023-07-20T08:22:42;27.30;44.50
42227;DHT22;27892;52.378;13.122;2023-07-20T08:25:09;26.70;45.20
42227;DHT22;27892;52.378;13.122;2023-07-20T08:27:36;26.40;45.90
42227;DHT22;27892;52.378;13.122;2023-07-20T08:30:02;26.40;46.80
42227;DHT22;27892;52.378;13.122;2023-07-20T08:32:28;26.50;46.90
42227;DHT22;27892;52.378;13.122;2023-07-20T08:34:54;26.60;46.60
42227;DHT22;27892;52.378;13.122;2023-07-20T08:37:19;26.50;46.90
42227;DHT22;27892;52.378;13.122;2023-07-20T08:39:45;26.20;47.20
42227;DHT22;27892;52.378;13.122;2023-07-20T08:42:12;26.30;48.50
42227;DHT22;27892;52.378;13.122;2023-07-20T08:44:41;26.40;47.40
42227;DHT22;27892;52.378;13.122;2023-07-20T08:47:09;26.40;48.00
42227;DHT22;27892;52.378;13.122;2023-07-20T08:49:35;26.30;47.30
42227;DHT22;27892;52.378;13.122;2023-07-20T08:52:01;26.10;47.50
42227;DHT22;27892;52.378;13.122;2023-07-20T08:54:30;25.90;48.00
42227;DHT22;27892;52.378;13.122;2023-07-20T08:57:03;26.40;49.00
42227;DHT22;27892;52.378;13.122;2023-07-20T08:59:29;27.00;47.80
42227;DHT22;27892;52.378;13.122;2023-07-20T09:01:59;27.10;46.50
42227;DHT22;27892;52.378;13.122;2023-07-20T09:04:25;27.20;45.90
42227;DHT22;27892;52.378;13.122;2023-07-20T09:06:51;27.40;45.30
42227;DHT22;27892;52.378;13.122;2023-07-20T09:09:17;27.70;44.30
42227;DHT22;27892;52.378;13.122;2023-07-20T09:11:46;27.90;43.40
42227;DHT22;27892;52.378;13.122;2023-07-20T09:14:11;28.00;41.90
42227;DHT22;27892;52.378;13.122;2023-07-20T09:16:51;27.70;41.60
42227;DHT22;27892;52.378;13.122;2023-07-20T09:19:17;27.60;42.30
42227;DHT22;27892;52.378;13.122;2023-07-20T09:21:50;27.70;41.70
42227;DHT22;27892;52.378;13.122;2023-07-20T09:24:18;28.00;42.10
42227;DHT22;27892;52.378;13.122;2023-07-20T09:26:45;28.30;42.80
42227;DHT22;27892;52.378;13.122;2023-07-20T09:29:11;28.60;43.00
42227;DHT22;27892;52.378;13.122;2023-07-20T09:31:37;28.70;42.00
42227;DHT22;27892;52.378;13.122;2023-07-20T09:34:04;28.40;39.80
42227;DHT22;27892;52.378;13.122;2023-07-20T09:36:36;28.00;40.50
42227;DHT22;27892;52.378;13.122;2023-07-20T09:39:03;27.50;40.70
42227;DHT22;27892;52.378;13.122;2023-07-20T09:41:30;27.20;41.70
42227;DHT22;27892;52.378;13.122;2023-07-20T09:44:04;27.10;43.30
42227;DHT22;27892;52.378;13.122;2023-07-20T09:46:44;26.80;43.30
42227;DHT22;27892;52.378;13.122;2023-07-20T09:49:10;26.70;44.50
42227;DHT22;27892;52.378;13.122;2023-07-20T09:51:36;26.60;43.90
42227;DHT22;27892;52.378;13.122;2023-07-20T09:54:02;26.50;44.40
42227;DHT22;27892;52.378;13.122;2023-07-20T09:56:30;26.40;44.00
42227;DHT22;27892;52.378;13.122;2023-07-20T09:58:56;26.10;43.00
42227;DHT22;27892;52.378;13.122;2023-07-20T10:01:23;26.00;44.40
42227;DHT22;27892;52.378;13.122;2023-07-20T10:03:52;25.90;44.80
42227;DHT22;27892;52.378;13.122;2023-07-20T10:06:24;25.90;44.10
42227;DHT22;27892;52.378;13.122;2023-07-20T10:08:53;26.00;43.90
42227;DHT22;27892;52.378;13.122;2023-07-20T10:11:21;26.00;43.20
42227;DHT22;27892;52.378;13.122;2023-07-20T10:13:51;26.00;43.70
42227;DHT22;27892;52.378;13.122;2023-07-20T10:16:34;26.20;44.90
42227;DHT22;27892;52.378;13.122;2023-07-20T10:19:22;26.40;44.30
42227;DHT22;27892;52.378;13.122;2023-07-20T10:21:48;26.30;43.60
42227;DHT22;27892;52.378;13.122;2023-07-20T10:24:16;26.50;44.00
42227;DHT22;27892;52.378;13.122;2023-07-20T10:26:42;26.90;43.50
42227;DHT22;27892;52.378;13.122;2023-07-20T10:29:08;27.50;42.70
42227;DHT22;27892;52.378;13.122;2023-07-20T10:31:35;27.90;43.60
42227;DHT22;27892;52.378;13.122;2023-07-20T10:34:02;28.10;42.50
42227;DHT22;27892;52.378;13.122;2023-07-20T10:36:28;28.20;42.40
42227;DHT22;27892;52.378;13.122;2023-07-20T10:38:55;28.00;41.70
42227;DHT22;27892;52.378;13.122;2023-07-20T10:43:59;27.50;42.30
42227;DHT22;27892;52.378;13.122;2023-07-20T10:49:08;26.60;42.40
42227;DHT22;27892;52.378;13.122;2023-07-20T10:51:44;26.30;43.50
42227;DHT22;27892;52.378;13.122;2023-07-20T10:56:43;25.90;45.80
42227;DHT22;27892;52.378;13.122;2023-07-20T10:59:20;25.80;46.60
42227;DHT22;27892;52.378;13.122;2023-07-20T11:02:08;25.60;48.30
42227;DHT22;27892;52.378;13.122;2023-07-20T11:07:07;25.10;50.20
42227;DHT22;27892;52.378;13.122;2023-07-20T11:09:38;24.80;51.00
42227;DHT22;27892;52.378;13.122;2023-07-20T11:12:14;24.50;51.50
42227;DHT22;27892;52.378;13.122;2023-07-20T11:14:42;24.40;52.00
42227;DHT22;27892;52.378;13.122;2023-07-20T11:17:15;24.20;52.60
42227;DHT22;27892;52.378;13.122;2023-07-20T11:19:41;24.20;54.00
42227;DHT22;27892;52.378;13.122;2023-07-20T11:22:07;24.30;54.60
42227;DHT22;27892;52.378;13.122;2023-07-20T11:24:34;24.50;54.20
42227;DHT22;27892;52.378;13.122;2023-07-20T11:27:00;25.00;52.50
42227;DHT22;27892;52.378;13.122;2023-07-20T11:29:29;25.40;52.50
42227;DHT22;27892;52.378;13.122;2023-07-20T11:31:56;25.90;51.30
42227;DHT22;27892;52.378;13.122;2023-07-20T11:34:22;26.30;49.50
42227;DHT22;27892;52.378;13.122;2023-07-20T11:36:50;26.50;48.50
42227;DHT22;27892;52.378;13.122;2023-07-20T11:39:17;26.50;47.20
42227;DHT22;27892;52.378;13.122;2023-07-20T11:41:51;26.40;47.00
42227;DHT22;27892;52.378;13.122;2023-07-20T11:44:18;26.40;46.90
42227;DHT22;27892;52.378;13.122;2023-07-20T11:46:44;26.50;47.00
42227;DHT22;27892;52.378;13.122;2023-07-20T11:49:10;26.80;46.60
42227;DHT22;27892;52.378;13.122;2023-07-20T11:51:37;27.30;45.30
42227;DHT22;27892;52.378;13.122;2023-07-20T11:54:04;27.40;44.60
42227;DHT22;27892;52.378;13.122;2023-07-20T11:56:30;27.50;44.70
42227;DHT22;27892;52.378;13.122;2023-07-20T11:58:57;27.50;43.90
42227;DHT22;27892;52.378;13.122;2023-07-20T12:01:26;27.30;44.40
42227;DHT22;27892;52.378;13.122;2023-07-20T12:03:56;27.10;44.10
42227;DHT22;27892;52.378;13.122;2023-07-20T12:06:27;26.90;45.30
42227;DHT22;27892;52.378;13.122;2023-07-20T12:08:59;26.70;46.20
42227;DHT22;27892;52.378;13.122;2023-07-20T12:11:36;26.60;45.80
42227;DHT22;27892;52.378;13.122;2023-07-20T12:14:08;26.50;45.90
42227;DHT22;27892;52.378;13.122;2023-07-20T12:16:36;26.30;45.30
42227;DHT22;27892;52.378;13.122;2023-07-20T12:19:08;26.30;45.40
42227;DHT22;27892;52.378;13.122;2023-07-20T12:21:36;26.30;45.40
42227;DHT22;27892;52.378;13.122;2023-07-20T12:24:06;26.60;46.50
42227;DHT22;27892;52.378;13.122;2023-07-20T12:26:33;27.10;45.80
42227;DHT22;27892;52.378;13.122;2023-07-20T12:28:59;27.40;44.20
42227;DHT22;27892;52.378;13.122;2023-07-20T12:31:26;27.40;43.90
42227;DHT22;27892;52.378;13.122;2023-07-20T12:33:52;27.30;42.80
42227;DHT22;27892;52.378;13.122;2023-07-20T12:36:19;27.20;43.70
42227;DHT22;27892;52.378;13.122;2023-07-20T12:38:44;27.10;43.00
42227;DHT22;27892;52.378;13.122;2023-07-20T12:41:11;27.00;43.50
42227;DHT22;27892;52.378;13.122;2023-07-20T12:43:42;26.90;44.70
42227;DHT22;27892;52.378;13.122;2023-07-20T12:46:09;27.30;45.00
42227;DHT22;27892;52.378;13.122;2023-07-20T12:48:36;27.90;43.10
42227;DHT22;27892;52.378;13.122;2023-07-20T12:51:07;28.50;42.50
42227;DHT22;27892;52.378;13.122;2023-07-20T12:53:33;28.90;41.00
42227;DHT22;27892;52.378;13.122;2023-07-20T12:56:00;29.10;40.70
42227;DHT22;27892;52.378;13.122;2023-07-20T12:58:26;29.60;40.60
42227;DHT22;27892;52.378;13.122;2023-07-20T13:00:52;29.90;39.00
42227;DHT22;27892;52.378;13.122;2023-07-20T13:03:18;30.20;40.60
42227;DHT22;27892;52.378;13.122;2023-07-20T13:05:45;30.60;39.00
42227;DHT22;27892;52.378;13.122;2023-07-20T13:08:11;30.90;36.80
42227;DHT22;27892;52.378;13.122;2023-07-20T13:10:37;30.60;36.90
42227;DHT22;27892;52.378;13.122;2023-07-20T13:13:04;30.50;36.70
42227;DHT22;27892;52.378;13.122;2023-07-20T13:15:32;30.60;36.60
42227;DHT22;27892;52.378;13.122;2023-07-20T13:17:58;30.70;36.50
42227;DHT22;27892;52.378;13.122;2023-07-20T13:20:25;30.90;35.20
42227;DHT22;27892;52.378;13.122;2023-07-20T13:22:51;31.00;33.70
42227;DHT22;27892;52.378;13.122;2023-07-20T13:25:17;30.90;35.10
42227;DHT22;27892;52.378;13.122;2023-07-20T13:27:44;30.90;34.30
42227;DHT22;27892;52.378;13.122;2023-07-20T13:30:10;31.00;33.00
42227;DHT22;27892;52.378;13.122;2023-07-20T13:32:44;30.90;33.80
42227;DHT22;27892;52.378;13.122;2023-07-20T13:35:13;30.70;33.40
42227;DHT22;27892;52.378;13.122;2023-07-20T13:37:40;30.80;33.20
42227;DHT22;27892;52.378;13.122;2023-07-20T13:40:06;31.10;33.40
42227;DHT22;27892;52.378;13.122;2023-07-20T13:42:35;31.50;33.40
42227;DHT22;27892;52.378;13.122;2023-07-20T13:45:00;32.10;33.60
42227;DHT22;27892;52.378;13.122;2023-07-20T13:47:26;32.80;32.10
42227;DHT22;27892;52.378;13.122;2023-07-20T13:49:52;32.70;30.40
42227;DHT22;27892;52.378;13.122;2023-07-20T13:52:18;32.00;31.00
42227;DHT22;27892;52.378;13.122;2023-07-20T13:54:43;31.30;30.30
42227;DHT22;27892;52.378;13.122;2023-07-20T13:57:09;30.70;32.60
42227;DHT22;27892;52.378;13.122;2023-07-20T13:59:35;31.10;33.70
42227;DHT22;27892;52.378;13.122;2023-07-20T14:02:00;32.40;33.80
42227;DHT22;27892;52.378;13.122;2023-07-20T14:04:26;33.30;30.50
42227;DHT22;27892;52.378;13.122;2023-07-20T14:06:52;33.70;29.30
42227;DHT22;27892;52.378;13.122;2023-07-20T14:09:17;33.00;28.40
42227;DHT22;27892;52.378;13.122;2023-07-20T14:11:43;31.80;29.70
42227;DHT22;27892;52.378;13.122;2023-07-20T14:14:09;30.90;30.40
42227;DHT22;27892;52.378;13.122;2023-07-20T14:16:34;30.30;32.00
42227;DHT22;27892;52.378;13.122;2023-07-20T14:19:00;30.50;33.70
42227;DHT22;27892;52.378;13.122;2023-07-20T14:21:26;31.10;32.90
42227;DHT22;27892;52.378;13.122;2023-07-20T14:23:52;31.50;31.90
42227;DHT22;27892;52.378;13.122;2023-07-20T14:26:19;31.80;31.70
42227;DHT22;27892;52.378;13.122;2023-07-20T14:28:45;32.00;31.00
42227;DHT22;27892;52.378;13.122;2023-07-20T14:31:10;31.90;30.70
42227;DHT22;27892;52.378;13.122;2023-07-20T14:33:36;31.80;30.70
42227;DHT22;27892;52.378;13.122;2023-07-20T14:36:02;31.50;30.70
42227;DHT22;27892;52.378;13.122;2023-07-20T14:38:30;31.50;31.00
42227;DHT22;27892;52.378;13.122;2023-07-20T14:40:55;31.40;30.20
42227;DHT22;27892;52.378;13.122;2023-07-20T14:43:21;31.20;30.50
42227;DHT22;27892;52.378;13.122;2023-07-20T14:45:47;31.00;30.60
42227;DHT22;27892;52.378;13.122;2023-07-20T14:48:13;30.80;31.00
42227;DHT22;27892;52.378;13.122;2023-07-20T14:50:38;30.60;31.20
42227;DHT22;27892;52.378;13.122;2023-07-20T14:53:04;30.50;31.30
42227;DHT22;27892;52.378;13.122;2023-07-20T14:55:30;30.30;31.00
42227;DHT22;27892;52.378;13.122;2023-07-20T14:57:55;30.20;31.50
42227;DHT22;27892;52.378;13.122;2023-07-20T15:00:21;29.90;31.80
42227;DHT22;27892;52.378;13.122;2023-07-20T15:02:47;29.50;31.90
42227;DHT22;27892;52.378;13.122;2023-07-20T15:05:20;29.00;32.30
42227;DHT22;27892;52.378;13.122;2023-07-20T15:07:46;28.70;32.60
42227;DHT22;27892;52.378;13.122;2023-07-20T15:10:11;28.70;33.90
42227;DHT22;27892;52.378;13.122;2023-07-20T15:12:37;28.80;34.60
42227;DHT22;27892;52.378;13.122;2023-07-20T15:17:34;29.00;34.00
42227;DHT22;27892;52.378;13.122;2023-07-20T15:20:00;29.00;34.10
42227;DHT22;27892;52.378;13.122;2023-07-20T15:22:30;29.00;33.30
42227;DHT22;27892;52.378;13.122;2023-07-20T15:24:56;29.10;32.30
42227;DHT22;27892;52.378;13.122;2023-07-20T15:27:22;29.00;32.00
42227;DHT22;27892;52.378;13.122;2023-07-20T15:29:48;28.90;32.80
42227;DHT22;27892;52.378;13.122;2023-07-20T15:32:14;28.80;33.70
42227;DHT22;27892;52.378;13.122;2023-07-20T15:34:42;28.70;34.40